createdAt,value
2019-03-28T00:00:16.521Z,7.10
2019-03-28T00:02:46.082Z,7.10
2019-03-28T00:05:15.731Z,7.10
2019-03-28T00:07:45.195Z,7.10
2019-03-28T00:10:14.952Z,7.10
2019-03-28T00:12:44.325Z,7.00
2019-03-28T00:15:13.782Z,7.00
2019-03-28T00:17:43.237Z,7.00
2019-03-28T00:20:16.250Z,7.10
2019-03-28T00:22:50.929Z,7.10
2019-03-28T00:25:20.405Z,7.20
2019-03-28T00:27:49.785Z,7.20
2019-03-28T00:30:20.240Z,7.20
2019-03-28T00:32:49.714Z,7.10
2019-03-28T00:35:19.290Z,7.20
2019-03-28T00:37:48.827Z,7.10
2019-03-28T00:40:18.356Z,7.10
2019-03-28T00:42:47.829Z,7.00
2019-03-28T00:45:17.643Z,7.10
2019-03-28T00:47:47.029Z,7.10
2019-03-28T00:50:16.670Z,7.00
2019-03-28T00:52:46.209Z,7.00
2019-03-28T00:55:15.664Z,7.10
2019-03-28T00:57:45.776Z,7.00
2019-03-28T01:00:15.761Z,7.10
2019-03-28T01:02:46.056Z,7.10
2019-03-28T01:05:15.938Z,7.10
2019-03-28T01:07:45.513Z,7.10
2019-03-28T01:10:15.245Z,7.00
2019-03-28T01:12:44.705Z,7.00
2019-03-28T01:15:14.342Z,7.10
2019-03-28T01:17:43.953Z,7.10
2019-03-28T01:20:13.872Z,7.00
2019-03-28T01:22:43.258Z,7.00
2019-03-28T01:25:12.790Z,7.00
2019-03-28T01:27:42.520Z,7.00
2019-03-28T01:30:12.250Z,7.00
2019-03-28T01:32:41.634Z,7.00
2019-03-28T01:35:11.157Z,7.00
2019-03-28T01:37:41.243Z,6.90
2019-03-28T01:40:10.926Z,6.90
2019-03-28T01:42:40.486Z,6.90
2019-03-28T01:45:10.962Z,7.00
2019-03-28T01:47:40.497Z,6.90
2019-03-28T01:50:10.229Z,6.90
2019-03-28T01:52:39.699Z,6.80
2019-03-28T01:55:09.248Z,6.90
2019-03-28T01:57:39.421Z,6.80
2019-03-28T02:00:10.100Z,6.80
2019-03-28T02:02:39.554Z,6.80
2019-03-28T02:05:09.109Z,6.80
2019-03-28T02:07:39.072Z,6.80
2019-03-28T02:10:08.907Z,6.80
2019-03-28T02:12:38.466Z,6.80
2019-03-28T02:15:09.093Z,6.80
2019-03-28T02:17:38.945Z,6.80
2019-03-28T02:20:09.207Z,6.80
2019-03-28T02:22:38.825Z,6.80
2019-03-28T02:25:08.510Z,6.80
2019-03-28T02:27:38.049Z,6.80
2019-03-28T02:30:09.118Z,6.80
2019-03-28T02:32:38.575Z,6.80
2019-03-28T02:35:08.992Z,6.80
2019-03-28T02:37:38.739Z,6.70
2019-03-28T02:40:08.515Z,6.70
2019-03-28T02:42:38.078Z,6.80
2019-03-28T02:45:08.282Z,6.80
2019-03-28T02:47:38.525Z,6.90
2019-03-28T02:50:08.808Z,6.90
2019-03-28T02:52:38.269Z,6.80
2019-03-28T02:55:08.302Z,6.70
2019-03-28T02:57:41.499Z,6.80
2019-03-28T03:00:09.686Z,6.80
2019-03-28T03:02:39.227Z,6.80
2019-03-28T03:05:08.823Z,6.80
2019-03-28T03:07:38.277Z,6.70
2019-03-28T03:10:08.168Z,6.70
2019-03-28T03:12:37.746Z,6.80
2019-03-28T03:15:08.057Z,6.80
2019-03-28T03:17:37.680Z,6.80
2019-03-28T03:20:07.910Z,6.80
2019-03-28T03:22:37.730Z,6.70
2019-03-28T03:25:07.534Z,6.70
2019-03-28T03:27:37.445Z,6.60
2019-03-28T03:30:08.756Z,6.60
2019-03-28T03:32:38.321Z,6.50
2019-03-28T03:35:08.732Z,6.60
2019-03-28T03:37:38.525Z,6.50
2019-03-28T03:40:09.674Z,6.50
2019-03-28T03:42:39.268Z,6.60
2019-03-28T03:45:09.595Z,6.60
2019-03-28T03:47:39.462Z,6.60
2019-03-28T03:50:09.704Z,6.50
2019-03-28T03:52:39.442Z,6.50
2019-03-28T03:55:09.363Z,6.50
2019-03-28T03:57:38.906Z,6.50
2019-03-28T04:00:08.748Z,6.40
2019-03-28T04:02:38.295Z,6.40
2019-03-28T04:05:08.050Z,6.40
2019-03-28T04:07:37.978Z,6.40
2019-03-28T04:10:08.094Z,6.40
2019-03-28T04:12:37.498Z,6.50
2019-03-28T04:15:07.300Z,6.40
2019-03-28T04:17:36.773Z,6.40
2019-03-28T04:20:06.949Z,6.40
2019-03-28T04:22:37.161Z,6.40
2019-03-28T04:25:07.102Z,6.40
2019-03-28T04:27:37.003Z,6.30
2019-03-28T04:30:07.075Z,6.30
2019-03-28T04:32:36.628Z,6.30
2019-03-28T04:35:06.185Z,6.30
2019-03-28T04:37:36.009Z,6.40
2019-03-28T04:40:06.521Z,6.30
2019-03-28T04:42:35.994Z,6.30
2019-03-28T04:45:05.738Z,6.30
2019-03-28T04:47:35.132Z,6.30
2019-03-28T04:50:04.990Z,6.30
2019-03-28T04:52:34.475Z,6.30
2019-03-28T04:55:04.294Z,6.40
2019-03-28T04:57:34.013Z,6.40
2019-03-28T05:00:04.513Z,6.40
2019-03-28T05:02:33.975Z,6.40
2019-03-28T05:05:03.434Z,6.40
2019-03-28T05:07:32.889Z,6.40
2019-03-28T05:10:02.965Z,6.40
2019-03-28T05:12:32.341Z,6.40
2019-03-28T05:15:02.125Z,6.40
2019-03-28T05:17:32.394Z,6.40
2019-03-28T05:20:01.970Z,6.40
2019-03-28T05:22:31.426Z,6.40
2019-03-28T05:25:00.933Z,6.50
2019-03-28T05:27:30.420Z,6.50
2019-03-28T05:29:59.802Z,6.60
2019-03-28T05:32:29.737Z,6.50
2019-03-28T05:34:59.193Z,6.60
2019-03-28T05:37:28.646Z,6.60
2019-03-28T05:39:58.438Z,6.60
2019-03-28T05:42:27.813Z,6.60
2019-03-28T05:44:57.273Z,6.60
2019-03-28T05:47:26.729Z,6.70
2019-03-28T05:49:56.109Z,6.80
2019-03-28T05:52:25.560Z,6.80
2019-03-28T05:54:54.962Z,6.80
2019-03-28T05:57:24.786Z,6.90
2019-03-28T05:59:54.329Z,6.90
2019-03-28T06:02:24.376Z,7.00
2019-03-28T06:04:54.001Z,7.00
2019-03-28T06:07:23.548Z,7.00
2019-03-28T06:09:53.721Z,7.10
2019-03-28T06:12:23.185Z,7.20
2019-03-28T06:14:53.643Z,7.30
2019-03-28T06:17:23.408Z,7.30
2019-03-28T06:19:52.955Z,7.50
2019-03-28T06:22:22.505Z,7.50
2019-03-28T06:24:51.877Z,7.60
2019-03-28T06:27:21.338Z,7.70
2019-03-28T06:29:50.773Z,7.70
2019-03-28T06:32:20.154Z,7.80
2019-03-28T06:34:49.638Z,7.80
2019-03-28T06:37:19.216Z,7.90
2019-03-28T06:39:48.772Z,7.90
2019-03-28T06:42:18.353Z,7.90
2019-03-28T06:44:48.298Z,7.90
2019-03-28T06:47:20.817Z,8.00
2019-03-28T06:49:49.374Z,8.00
2019-03-28T06:52:19.609Z,8.10
2019-03-28T06:54:50.328Z,8.20
2019-03-28T06:57:20.151Z,8.20
2019-03-28T06:59:50.001Z,8.30
2019-03-28T07:02:21.804Z,8.40
2019-03-28T07:04:51.262Z,8.50
2019-03-28T07:07:21.350Z,8.60
2019-03-28T07:09:51.341Z,8.70
2019-03-28T07:12:20.893Z,8.70
2019-03-28T07:14:50.502Z,8.80
2019-03-28T07:17:20.120Z,8.80
2019-03-28T07:19:49.994Z,8.90
2019-03-28T07:22:19.508Z,9.10
2019-03-28T07:24:48.968Z,9.10
2019-03-28T07:27:18.643Z,9.20
2019-03-28T07:29:51.029Z,9.20
2019-03-28T07:32:19.305Z,9.30
2019-03-28T07:34:49.053Z,9.40
2019-03-28T07:37:19.011Z,9.40
2019-03-28T07:39:48.787Z,9.50
2019-03-28T07:42:18.250Z,9.60
2019-03-28T07:44:47.785Z,9.60
2019-03-28T07:47:17.511Z,9.70
2019-03-28T07:49:46.899Z,9.80
2019-03-28T07:52:19.759Z,9.90
2019-03-28T07:54:49.153Z,9.90
2019-03-28T07:57:18.645Z,10.00
2019-03-28T07:59:48.136Z,10.10
2019-03-28T08:02:17.602Z,10.20
2019-03-28T08:04:47.070Z,10.00
2019-03-28T08:07:16.635Z,10.20
2019-03-28T08:09:46.096Z,10.20
2019-03-28T08:12:22.586Z,10.30
2019-03-28T08:14:47.714Z,10.40
2019-03-28T08:17:17.174Z,10.40
2019-03-28T08:19:46.808Z,10.50
2019-03-28T08:22:16.261Z,10.50
2019-03-28T08:24:46.353Z,10.60
2019-03-28T08:27:16.276Z,10.70
2019-03-28T08:29:45.754Z,10.70
2019-03-28T08:32:18.438Z,10.70
2019-03-28T08:34:47.840Z,10.80
2019-03-28T08:37:17.715Z,10.90
2019-03-28T08:39:47.189Z,10.90
2019-03-28T08:42:17.385Z,11.00
2019-03-28T08:44:46.937Z,11.20
2019-03-28T08:47:16.473Z,11.30
2019-03-28T08:49:46.238Z,11.30
2019-03-28T08:52:15.794Z,11.40
2019-03-28T08:54:45.261Z,11.60
2019-03-28T08:57:15.373Z,11.90
2019-03-28T08:59:50.633Z,12.00
2019-03-28T09:02:20.478Z,12.20
2019-03-28T09:04:50.225Z,12.50
2019-03-28T09:07:19.621Z,12.60
2019-03-28T09:09:49.089Z,12.60
2019-03-28T09:12:18.497Z,12.40
2019-03-28T09:17:35.437Z,12.70
2019-03-28T09:20:06.024Z,12.80
2019-03-28T09:22:38.707Z,12.90
2019-03-28T09:25:07.526Z,12.90
2019-03-28T09:27:37.166Z,13.10
2019-03-28T09:30:08.319Z,13.30
2019-03-28T09:32:38.097Z,13.50
2019-03-28T09:35:08.274Z,13.70
2019-03-28T09:37:37.736Z,13.70
2019-03-28T09:40:07.310Z,13.80
2019-03-28T09:42:38.570Z,14.10
2019-03-28T09:45:08.865Z,14.20
2019-03-28T09:47:38.471Z,14.20
2019-03-28T09:50:08.263Z,14.30
2019-03-28T09:52:37.718Z,14.60
2019-03-28T09:55:08.153Z,14.70
2019-03-28T09:57:38.058Z,14.80
2019-03-28T10:00:09.020Z,15.00
2019-03-28T10:02:38.629Z,14.90
2019-03-28T10:05:09.406Z,15.20
2019-03-28T10:07:39.341Z,15.30
2019-03-28T10:10:09.997Z,15.40
2019-03-28T10:12:39.834Z,15.40
2019-03-28T10:15:09.523Z,15.80
2019-03-28T10:17:42.284Z,15.80
2019-03-28T10:20:10.596Z,15.70
2019-03-28T10:22:40.165Z,15.80
2019-03-28T10:25:12.598Z,16.00
2019-03-28T10:27:41.331Z,16.00
2019-03-28T10:30:11.923Z,15.70
2019-03-28T10:32:41.497Z,15.50
2019-03-28T10:35:14.749Z,15.50
2019-03-28T10:37:44.414Z,15.60
2019-03-28T10:40:14.033Z,15.80
2019-03-28T10:42:43.602Z,16.10
2019-03-28T10:45:14.116Z,16.10
2019-03-28T10:47:43.748Z,16.10
2019-03-28T10:50:13.326Z,15.80
2019-03-28T10:52:42.977Z,15.80
2019-03-28T10:55:12.664Z,16.00
2019-03-28T10:57:42.209Z,16.10
2019-03-28T11:00:24.055Z,16.20
2019-03-28T11:02:45.946Z,16.00
2019-03-28T11:05:16.009Z,16.00
2019-03-28T11:07:45.505Z,16.00
2019-03-28T11:10:15.094Z,16.00
2019-03-28T11:12:44.709Z,15.90
2019-03-28T11:15:14.639Z,15.50
2019-03-28T11:17:44.061Z,15.30
2019-03-28T11:20:13.639Z,15.50
2019-03-28T11:22:43.409Z,15.90
2019-03-28T11:25:13.384Z,16.30
2019-03-28T11:27:42.810Z,16.60
2019-03-28T11:30:12.708Z,16.30
2019-03-28T11:32:42.217Z,16.30
2019-03-28T11:35:12.190Z,16.20
2019-03-28T11:37:41.722Z,16.00
2019-03-28T11:40:12.190Z,16.20
2019-03-28T11:42:42.523Z,16.20
2019-03-28T11:45:12.713Z,16.20
2019-03-28T11:47:42.218Z,16.30
2019-03-28T11:50:13.337Z,16.00
2019-03-28T11:52:43.059Z,16.00
2019-03-28T11:55:13.348Z,16.10
2019-03-28T11:57:43.120Z,16.10
2019-03-28T12:00:13.930Z,16.30
2019-03-28T12:02:43.953Z,16.60
2019-03-28T12:05:13.747Z,16.80
2019-03-28T12:07:43.321Z,17.20
2019-03-28T12:10:13.506Z,17.30
2019-03-28T12:12:43.119Z,17.00
2019-03-28T12:15:13.601Z,17.60
2019-03-28T12:17:43.185Z,17.80
2019-03-28T12:20:13.362Z,17.60
2019-03-28T12:22:43.018Z,17.40
2019-03-28T12:25:12.758Z,17.70
2019-03-28T12:27:42.268Z,17.80
2019-03-28T12:30:15.754Z,17.70
2019-03-28T12:32:44.157Z,17.80
2019-03-28T12:35:14.074Z,18.00
2019-03-28T12:37:43.570Z,17.90
2019-03-28T12:40:13.461Z,17.60
2019-03-28T12:42:43.136Z,17.40
2019-03-28T12:45:13.424Z,17.50
2019-03-28T12:47:43.402Z,17.70
2019-03-28T12:50:14.175Z,16.80
2019-03-28T12:52:44.910Z,16.50
2019-03-28T12:55:15.041Z,17.00
2019-03-28T12:57:48.104Z,17.90
2019-03-28T13:00:16.788Z,18.30
2019-03-28T13:02:46.374Z,18.70
2019-03-28T13:05:16.045Z,18.90
2019-03-28T13:07:45.588Z,18.70
2019-03-28T13:10:15.313Z,18.50
2019-03-28T13:12:44.730Z,19.20
2019-03-28T13:15:14.409Z,19.50
2019-03-28T13:17:44.151Z,20.20
2019-03-28T13:20:14.257Z,20.20
2019-03-28T13:22:43.761Z,19.80
2019-03-28T13:25:13.333Z,20.00
2019-03-28T13:27:42.951Z,19.60
2019-03-28T13:30:13.579Z,18.90
2019-03-28T13:32:43.175Z,18.40
2019-03-28T13:35:13.442Z,18.20
2019-03-28T13:37:43.599Z,17.60
2019-03-28T13:40:14.350Z,17.50
2019-03-28T13:42:44.313Z,17.30
2019-03-28T13:45:14.662Z,17.10
2019-03-28T13:47:44.285Z,17.10
2019-03-28T13:50:14.669Z,17.00
2019-03-28T13:52:44.253Z,16.80
2019-03-28T13:55:13.812Z,16.60
2019-03-28T13:57:43.712Z,16.50
2019-03-28T14:00:13.769Z,16.60
2019-03-28T14:02:55.570Z,16.40
2019-03-28T14:05:14.612Z,16.20
2019-03-28T14:07:44.100Z,16.10
2019-03-28T14:10:13.804Z,15.90
2019-03-28T14:12:43.765Z,15.80
2019-03-28T14:15:13.379Z,15.70
2019-03-28T14:17:42.882Z,15.80
2019-03-28T14:20:13.016Z,15.60
2019-03-28T14:22:42.574Z,15.70
2019-03-28T14:25:12.144Z,15.60
2019-03-28T14:27:42.254Z,15.50
2019-03-28T14:30:12.322Z,15.50
2019-03-28T14:32:52.444Z,15.40
2019-03-28T14:35:13.205Z,15.50
2019-03-28T14:37:42.777Z,15.50
2019-03-28T14:40:12.751Z,15.40
2019-03-28T14:42:42.297Z,15.40
2019-03-28T14:45:12.199Z,15.50
2019-03-28T14:47:41.763Z,15.40
2019-03-28T14:50:12.120Z,15.40
2019-03-28T14:52:41.813Z,15.40
2019-03-28T14:55:11.797Z,15.30
2019-03-28T14:57:43.037Z,15.40
2019-03-28T15:00:24.792Z,15.40
2019-03-28T15:02:54.484Z,15.40
2019-03-28T15:05:24.440Z,15.30
2019-03-28T15:07:54.259Z,15.30
2019-03-28T15:10:23.985Z,15.30
2019-03-28T15:12:53.836Z,15.30
2019-03-28T15:15:23.646Z,15.30
2019-03-28T15:17:54.398Z,15.30
2019-03-28T15:20:27.321Z,15.30
2019-03-28T15:22:56.056Z,15.20
2019-03-28T15:25:25.925Z,15.20
2019-03-28T15:27:55.655Z,15.20
2019-03-28T15:30:25.500Z,15.10
2019-03-28T15:32:55.170Z,14.90
2019-03-28T15:35:25.105Z,14.80
2019-03-28T15:37:54.593Z,14.80
2019-03-28T15:40:24.270Z,14.80
2019-03-28T15:42:53.769Z,14.70
2019-03-28T15:45:23.349Z,14.70
2019-03-28T15:47:52.984Z,14.60
2019-03-28T15:50:22.662Z,14.60
2019-03-28T15:52:52.166Z,14.50
2019-03-28T15:55:21.756Z,14.50
2019-03-28T15:57:51.205Z,14.50
2019-03-28T16:00:20.780Z,14.50
2019-03-28T16:02:50.636Z,14.50
2019-03-28T16:05:20.213Z,14.40
2019-03-28T16:07:50.022Z,14.40
2019-03-28T16:10:20.042Z,14.50
2019-03-28T16:12:49.589Z,14.50
2019-03-28T16:15:19.013Z,14.40
2019-03-28T16:17:48.647Z,14.40
2019-03-28T16:20:19.789Z,14.40
2019-03-28T16:22:49.397Z,14.40
2019-03-28T16:25:19.098Z,14.30
2019-03-28T16:27:48.655Z,14.20
2019-03-28T16:30:22.993Z,14.10
2019-03-28T16:32:52.575Z,14.00
2019-03-28T16:35:22.413Z,14.10
2019-03-28T16:37:52.169Z,14.00
2019-03-28T16:40:22.152Z,13.90
2019-03-28T16:42:51.849Z,13.90
2019-03-28T16:45:21.853Z,13.90
2019-03-28T16:47:51.440Z,13.80
2019-03-28T16:50:21.018Z,13.70
2019-03-28T16:52:50.605Z,13.60
2019-03-28T16:55:26.159Z,13.60
2019-03-28T16:57:51.464Z,13.60
2019-03-28T17:00:22.834Z,13.50
2019-03-28T17:02:52.349Z,13.50
2019-03-28T17:05:22.033Z,13.50
2019-03-28T17:07:51.876Z,13.50
2019-03-28T17:10:43.545Z,13.40
2019-03-28T17:13:14.209Z,13.40
2019-03-28T17:15:43.820Z,13.30
2019-03-28T17:18:13.520Z,13.30
2019-03-28T17:20:44.540Z,13.30
2019-03-28T17:23:14.257Z,13.30
2019-03-28T17:25:44.034Z,13.20
2019-03-28T17:28:13.662Z,13.10
2019-03-28T17:30:43.529Z,13.10
2019-03-28T17:33:13.117Z,13.10
2019-03-28T17:35:42.767Z,13.00
2019-03-28T17:38:12.374Z,13.00
2019-03-28T17:40:42.358Z,13.00
2019-03-28T17:43:12.029Z,12.90
2019-03-28T17:45:41.870Z,13.00
2019-03-28T17:48:11.621Z,13.00
2019-03-28T17:50:41.181Z,12.90
2019-03-28T17:53:11.054Z,12.90
2019-03-28T17:55:41.082Z,12.90
2019-03-28T17:58:10.848Z,12.80
2019-03-28T18:00:41.800Z,12.80
2019-03-28T18:03:11.592Z,12.80
2019-03-28T18:05:42.508Z,12.80
2019-03-28T18:08:12.501Z,12.70
2019-03-28T18:10:42.475Z,12.70
2019-03-28T18:13:13.249Z,12.60
2019-03-28T18:15:43.349Z,12.60
2019-03-28T18:18:13.001Z,12.60
2019-03-28T18:20:43.917Z,12.50
2019-03-28T18:23:13.508Z,12.50
2019-03-28T18:25:43.261Z,12.50
2019-03-28T18:28:12.833Z,12.60
2019-03-28T18:30:42.411Z,12.50
2019-03-28T18:33:12.401Z,12.60
2019-03-28T18:35:41.849Z,12.80
2019-03-28T18:38:11.569Z,12.80
2019-03-28T18:40:41.348Z,12.60
2019-03-28T18:43:11.531Z,12.50
2019-03-28T18:45:41.229Z,12.50
2019-03-28T18:48:11.586Z,12.40
2019-03-28T18:50:41.631Z,12.30
2019-03-28T18:53:11.168Z,12.30
2019-03-28T18:55:40.821Z,12.30
2019-03-28T18:58:10.674Z,12.20
2019-03-28T19:00:40.669Z,12.10
2019-03-28T19:03:10.396Z,12.10
2019-03-28T19:05:39.989Z,12.10
2019-03-28T19:08:09.593Z,12.00
2019-03-28T19:10:39.228Z,12.00
2019-03-28T19:13:08.830Z,12.00
2019-03-28T19:15:38.688Z,12.00
2019-03-28T19:18:08.321Z,12.00
2019-03-28T19:20:38.056Z,12.00
2019-03-28T19:23:07.730Z,12.00
2019-03-28T19:25:37.566Z,11.90
2019-03-28T19:28:07.783Z,11.80
2019-03-28T19:30:38.947Z,11.80
2019-03-28T19:33:08.886Z,11.80
2019-03-28T19:35:40.628Z,11.80
2019-03-28T19:38:10.766Z,11.80
2019-03-28T19:40:40.562Z,11.80
2019-03-28T19:43:20.608Z,11.80
2019-03-28T19:45:41.601Z,11.80
2019-03-28T19:48:11.296Z,11.70
2019-03-28T19:50:41.826Z,11.70
2019-03-28T19:53:12.185Z,11.60
2019-03-28T19:55:42.147Z,11.70
2019-03-28T19:58:13.512Z,11.60
2019-03-28T20:00:44.008Z,11.60
2019-03-28T20:03:14.091Z,11.60
2019-03-28T20:05:47.774Z,11.60
2019-03-28T20:08:18.003Z,11.60
2019-03-28T20:10:47.011Z,11.60
2019-03-28T20:13:16.841Z,11.60
2019-03-28T20:15:46.608Z,11.50
2019-03-28T20:18:16.616Z,11.60
2019-03-28T20:20:46.953Z,11.60
2019-03-28T20:23:16.833Z,11.50
2019-03-28T20:25:46.740Z,11.60
2019-03-28T20:28:16.601Z,11.50
2019-03-28T20:30:46.364Z,11.50
2019-03-28T20:33:15.928Z,11.50
2019-03-28T20:35:45.791Z,11.40
2019-03-28T20:38:15.428Z,11.40
2019-03-28T20:40:45.259Z,11.40
2019-03-28T20:43:14.967Z,11.40
2019-03-28T20:45:44.630Z,11.40
2019-03-28T20:48:14.634Z,11.40
2019-03-28T20:50:44.131Z,11.30
2019-03-28T20:53:13.665Z,11.30
2019-03-28T20:55:43.173Z,11.20
2019-03-28T20:58:13.793Z,11.20
2019-03-28T21:00:45.668Z,11.20
2019-03-28T21:03:15.955Z,11.20
2019-03-28T21:05:46.285Z,11.20
2019-03-28T21:08:15.929Z,11.20
2019-03-28T21:10:45.769Z,11.10
2019-03-28T21:13:15.631Z,11.10
2019-03-28T21:15:45.990Z,11.10
2019-03-28T21:18:15.663Z,11.00
2019-03-28T21:20:45.315Z,11.10
2019-03-28T21:23:15.000Z,11.00
2019-03-28T21:25:44.830Z,11.00
2019-03-28T21:28:14.377Z,11.00
2019-03-28T21:30:47.438Z,11.00
2019-03-28T21:33:15.477Z,11.00
2019-03-28T21:35:45.138Z,11.00
2019-03-28T21:38:14.660Z,11.00
2019-03-28T21:40:44.237Z,11.00
2019-03-28T21:43:14.485Z,11.00
2019-03-28T21:45:44.033Z,11.00
2019-03-28T21:48:13.530Z,10.90
2019-03-28T21:50:43.045Z,10.90
2019-03-28T21:53:12.889Z,10.90
2019-03-28T21:55:54.510Z,10.90
2019-03-28T21:58:14.021Z,10.80
2019-03-28T22:00:43.516Z,10.80
2019-03-28T22:03:13.106Z,10.80
2019-03-28T22:05:42.819Z,10.90
2019-03-28T22:08:12.501Z,11.00
2019-03-28T22:10:42.432Z,10.90
2019-03-28T22:13:12.778Z,10.90
2019-03-28T22:15:42.311Z,10.80
2019-03-28T22:18:11.877Z,10.90
2019-03-28T22:20:41.372Z,10.90
2019-03-28T22:23:13.572Z,10.80
2019-03-28T22:25:42.694Z,10.80
2019-03-28T22:28:12.364Z,10.80
2019-03-28T22:30:42.065Z,10.80
2019-03-28T22:33:11.610Z,10.70
2019-03-28T22:35:41.137Z,10.70
2019-03-28T22:38:10.602Z,10.70
2019-03-28T22:40:40.086Z,10.70
2019-03-28T22:43:09.662Z,10.70
2019-03-28T22:45:39.234Z,10.80
2019-03-28T22:48:11.107Z,10.70
2019-03-28T22:50:40.202Z,10.70
2019-03-28T22:53:09.689Z,10.70
2019-03-28T22:55:39.670Z,10.60
2019-03-28T22:58:09.682Z,10.60
2019-03-28T23:00:47.146Z,10.60
2019-03-28T23:03:17.818Z,10.60
2019-03-28T23:05:47.377Z,10.60
2019-03-28T23:08:16.884Z,10.60
2019-03-28T23:10:47.930Z,10.60
2019-03-28T23:13:17.593Z,10.50
2019-03-28T23:15:47.091Z,10.60
2019-03-28T23:18:16.670Z,10.60
2019-03-28T23:20:46.280Z,10.60
2019-03-28T23:23:15.819Z,10.60
2019-03-28T23:25:45.296Z,10.60
2019-03-28T23:28:14.748Z,10.60
2019-03-28T23:30:44.211Z,10.60
2019-03-28T23:33:14.224Z,10.60
2019-03-28T23:35:44.172Z,10.60
2019-03-28T23:38:13.726Z,10.60
2019-03-28T23:40:43.313Z,10.60
2019-03-28T23:43:12.842Z,10.60
2019-03-28T23:45:42.298Z,10.60
2019-03-28T23:48:12.005Z,10.50
2019-03-28T23:50:42.793Z,10.40
2019-03-28T23:53:12.385Z,10.40
2019-03-28T23:55:41.919Z,10.30
2019-03-28T23:58:11.361Z,10.20
